Flight Track Log - Related Links

Times and Time Zones

All times are in EDT time to prevent confusion due to time zone crossing. See the TCF5917 flight status page for this flight to view local times or setup timezone preferences in your user account.

Time Position Orientation Groundspeed Altitude Reporting Facility
EDT Latitude Longitude Course Direction KTS MPH feet Rate Location/Type
Wed 02:29:35 PM 40.7667 -73.8333 57° Northeast 138 159 1,800  Level New TRACON
Wed 02:30:35 PM 40.7833 -73.8000 57° Northeast 231 266 3,700 2,600 Climbing New TRACON
Wed 02:31:35 PM 40.8333 -73.8333 333° Northwest 234 269 7,000 2,789 Climbing New TRACON
Wed 02:32:29 PM 40.8500 -73.9000 288° West 271 312 9,000 1,053 Climbing New TRACON
Wed 02:33:29 PM 40.8333 -74.0000 258° West 272 313 9,000 1,350 Level New TRACON
Wed 02:34:29 PM 40.8167 -74.1000 258° West 282 325 11,700 2,376 Climbing New TRACON
Wed 02:36:51 PM 40.7333 -74.3203 244° Southwest 291 335 17,000 1,604 Climbing New Center
Wed 02:37:51 PM 40.6844 -74.4189 237° Southwest 296 341 17,100 1,200 Climbing New Center
Wed 02:38:51 PM 40.6464 -74.5044 240° Southwest 296 341 19,400 2,400 Climbing New Center
Wed 02:39:51 PM 40.5994 -74.6003 237° Southwest 301 346 21,900 1,300 Climbing New Center
Wed 02:40:51 PM 40.5467 -74.6903 232° Southwest 307 353 22,000 50 Climbing New Center
Wed 02:41:51 PM 40.4936 -74.7772 231° Southwest 314 361 22,000  Level New Center
Wed 02:42:51 PM 40.4361 -74.8775 233° Southwest 327 376 22,000  Level New Center
Wed 02:43:51 PM 40.3783 -74.9750 232° Southwest 339 390 22,000  Level New Center
Wed 02:44:51 PM 40.3208 -75.0694 231° Southwest 339 390 22,000  Level New Center
Wed 02:45:51 PM 40.2631 -75.1664 232° Southwest 339 390 22,000  Level New Center
Wed 02:46:51 PM 40.2031 -75.2633 231° Southwest 339 390 22,000  Level New Center
Wed 02:47:51 PM 40.1453 -75.3600 232° Southwest 339 390 22,000  Level New Center
Wed 02:48:51 PM 40.0789 -75.4533 227° Southwest 344 396 22,000  Level New Center
Wed 02:49:51 PM 40.0150 -75.5439 227° Southwest 349 402 22,000 -600 Level New Center
Wed 02:51:00 PM 39.9388 -75.6224 237° Southwest  Level FlightAware
Wed 02:51:51 PM 39.8864 -75.7244 237° Southwest 349 402 20,200  Level New Center
Wed 02:52:51 PM 39.8303 -75.8178 232° Southwest 343 395 20,000 -100 Descending New Center
Wed 02:53:51 PM 39.7700 -75.9108 230° Southwest 343 395 20,000 -50 Level New Center
Wed 02:54:51 PM 39.7158 -76.0039 233° Southwest 338 389 19,900 -950 Descending New Center
Wed 02:55:51 PM 39.6556 -76.0939 229° Southwest 333 383 18,100 -1,850 Descending New Center
Wed 02:56:51 PM 39.5928 -76.1942 231° Southwest 338 389 16,200 -1,850 Descending New Center
Wed 02:57:51 PM 39.5386 -76.2817 231° Southwest 325 374 14,400 -1,714 Descending New Center
Wed 02:58:36 PM 39.5000 -76.3500 234° Southwest 302 348 13,200 -1,297 Descending Potomac TRACON
Wed 02:59:42 PM 39.4333 -76.4333 224° Southwest 300 345 12,000 -595 Descending Potomac TRACON
Wed 03:00:37 PM 39.3667 -76.4833 210° Southwest 299 344 12,000  Level Potomac TRACON
Wed 03:01:37 PM 39.3000 -76.5500 218° Southwest 296 341 12,000 -400 Level Potomac TRACON
Wed 03:02:37 PM 39.2333 -76.6000 210° Southwest 288 331 11,200 -1,000 Descending Potomac TRACON
Wed 03:03:37 PM 39.1667 -76.6667 218° Southwest 275 316 10,000 -600 Descending Potomac TRACON
Wed 03:04:37 PM 39.1333 -76.7500 243° Southwest 273 314 10,000 -500 Level Potomac TRACON
Wed 03:05:37 PM 39.1167 -76.8500 258° West 273 314 9,000 -1,000 Descending Potomac TRACON
Wed 03:06:37 PM 39.0833 -76.9333 243° Southwest 269 310 8,000 -1,091 Descending Potomac TRACON
Wed 03:07:38 PM 39.0667 -77.0167 256° West 264 304 6,800 -992 Descending Potomac TRACON
Wed 03:08:38 PM 39.0500 -77.1167 258° West 252 290 6,000 -550 Descending Potomac TRACON
Wed 03:09:38 PM 39.0833 -77.1667 311° West 202 232 5,700 -947 Descending Potomac TRACON
Wed 03:10:32 PM 39.0667 -77.2167 247° West 187 215 4,200 -1,409 Descending Potomac TRACON
Wed 03:11:33 PM 39.0167 -77.2167 180° South 190 219 3,000 -595 Descending Potomac TRACON
Wed 03:12:33 PM 38.9833 -77.1833 142° Southeast 177 204 3,000 -353 Level Potomac TRACON
Wed 03:13:32 PM 38.9500 -77.1333 131° Southeast 174 200 2,300 -756 Descending Potomac TRACON
Wed 03:14:32 PM 38.9167 -77.1000 142° Southeast 163 188 1,500 -793 Descending Potomac TRACON
Wed 03:15:33 PM 38.8833 -77.0667 142° Southeast 133 153 700 -787 Descending Potomac TRACON
Wed 03:17:00 PM 38.8519 -77.0377 153° Southeast  Level Estimated

Login

Don't have an account? Register now (free) for customized features, flight alerts, and more!